Time;durP1;ratioP1;P1;durP2;ratioP2;P2;SDS_P1;SDS_P2;PMS_P1;PMS_P2;Temp;Humidity;BMP_temperature;BMP_pressure;BME280_temperature;BME280_humidity;BME280_pressure;Samples;Min_cycle;Max_cycle;Signal;HPM_P1;HPM_P2
2024/01/22 00:01:10;;;;;;;103.55;40.63;;;;;;;;;;4847962;29;20515;-89
2024/01/22 00:03:42;;;;;;;100.15;41.72;;;;;;;;;;4865119;29;20030;-95
2024/01/22 00:06:08;;;;;;;100.63;39.33;;;;;;;;;;4868462;29;20187;-89
2024/01/22 00:08:41;;;;;;;91.50;39.20;;;;;;;;;;4868634;29;20036;-95
2024/01/22 00:11:07;;;;;;;100.13;38.95;;;;;;;;;;4920493;23;20049;-90
2024/01/22 00:13:36;;;;;;;80.15;36.17;;;;;;;;;;4899045;29;20598;-95
2024/01/22 00:16:02;;;;;;;102.43;41.08;;;;;;;;;;4886907;29;20064;-90
2024/01/22 00:18:28;;;;;;;107.70;43.33;;;;;;;;;;4871973;29;20109;-90
2024/01/22 00:21:21;;;;;;;115.13;44.85;;;;;;;;;;4873675;29;20387;-91
2024/01/22 00:23:47;;;;;;;90.75;39.13;;;;;;;;;;4861422;29;20053;-90
2024/01/22 00:26:14;;;;;;;105.32;40.42;;;;;;;;;;4847952;29;20556;-90
2024/01/22 00:28:58;;;;;;;99.95;39.63;;;;;;;;;;4849701;29;20030;-96
2024/01/22 00:31:24;;;;;;;97.00;38.28;;;;;;;;;;4847363;29;20045;-90
2024/01/22 00:33:50;;;;;;;96.18;40.08;;;;;;;;;;4868875;29;20056;-90
2024/01/22 00:36:36;;;;;;;;;;;;;;;;;;;;;
2024/01/22 00:39:13;;;;;;;87.88;38.50;;;;;;;;;;4867783;29;20041;-96
2024/01/22 00:41:39;;;;;;;97.63;38.80;;;;;;;;;;4850409;29;20029;-91
2024/01/22 00:44:05;;;;;;;90.38;38.45;;;;;;;;;;4865578;29;20029;-90
2024/01/22 00:46:31;;;;;;;103.97;40.53;;;;;;;;;;4881607;29;20116;-90
2024/01/22 00:48:58;;;;;;;88.25;36.97;;;;;;;;;;4883060;29;20032;-89
2024/01/22 00:51:24;;;;;;;93.53;39.47;;;;;;;;;;4883110;29;20032;-90
2024/01/22 00:53:50;;;;;;;85.22;37.95;;;;;;;;;;4884204;29;20033;-90
2024/01/22 00:56:28;;;;;;;100.63;40.80;;;;;;;;;;4886372;29;20037;-96
2024/01/22 00:58:56;;;;;;;79.13;35.47;;;;;;;;;;4883619;29;20075;-90
2024/01/22 01:01:31;;;;;;;76.90;35.45;;;;;;;;;;4884415;29;20029;-96
2024/01/22 01:03:57;;;;;;;86.80;39.10;;;;;;;;;;4864909;29;20554;-90
2024/01/22 01:06:23;;;;;;;89.10;37.95;;;;;;;;;;4865430;29;20028;-90
2024/01/22 01:08:49;;;;;;;79.18;35.10;;;;;;;;;;4864160;29;20076;-89
2024/01/22 01:11:16;;;;;;;92.28;37.08;;;;;;;;;;4880860;29;20045;-91
2024/01/22 01:13:42;;;;;;;87.93;37.05;;;;;;;;;;4864709;29;20124;-90
2024/01/22 01:16:08;;;;;;;80.72;36.65;;;;;;;;;;4864146;29;20161;-90
2024/01/22 01:21:00;;;;;;;86.68;38.25;;;;;;;;;;4900721;23;20524;-89
2024/01/22 01:23:26;;;;;;;78.22;40.17;;;;;;;;;;4871690;29;20037;-90
2024/01/22 01:25:52;;;;;;;84.95;43.25;;;;;;;;;;4870452;29;20055;-90
2024/01/22 01:28:18;;;;;;;85.95;42.33;;;;;;;;;;4882584;29;20021;-90
2024/01/22 01:30:44;;;;;;;78.03;42.15;;;;;;;;;;4888460;29;20056;-91
2024/01/22 01:33:10;;;;;;;90.93;42.38;;;;;;;;;;4883045;29;20107;-90
2024/01/22 01:35:43;;;;;;;86.80;40.42;;;;;;;;;;4889125;29;20037;-96
2024/01/22 01:38:09;;;;;;;88.90;38.65;;;;;;;;;;4880702;29;20463;-90
2024/01/22 01:40:35;;;;;;;82.20;36.33;;;;;;;;;;4863960;29;20040;-91
2024/01/22 01:43:02;;;;;;;78.95;34.67;;;;;;;;;;4885226;29;20029;-90
2024/01/22 01:45:28;;;;;;;84.28;35.95;;;;;;;;;;4874288;29;20041;-89
2024/01/22 01:47:54;;;;;;;80.30;36.00;;;;;;;;;;4865234;29;20593;-90
2024/01/22 01:50:21;;;;;;;80.00;36.60;;;;;;;;;;4887469;29;20029;-90
2024/01/22 01:52:49;;;;;;;82.80;36.03;;;;;;;;;;4898743;29;20025;-92
2024/01/22 01:55:15;;;;;;;90.60;42.40;;;;;;;;;;4901844;29;20093;-91
2024/01/22 01:57:42;;;;;;;80.13;37.13;;;;;;;;;;4886504;29;20035;-89
2024/01/22 02:00:09;;;;;;;90.38;37.35;;;;;;;;;;4887885;29;20067;-90
2024/01/22 02:05:22;;;;;;;86.10;38.53;;;;;;;;;;4904658;29;20071;-90
2024/01/22 02:07:48;;;;;;;83.65;39.88;;;;;;;;;;4869910;29;20033;-91
2024/01/22 02:10:14;;;;;;;95.00;40.85;;;;;;;;;;4867804;29;20029;-90
2024/01/22 02:12:41;;;;;;;91.50;38.88;;;;;;;;;;4867191;29;20033;-90
2024/01/22 02:15:07;;;;;;;89.45;40.67;;;;;;;;;;4869390;29;20036;-90
2024/01/22 02:17:34;;;;;;;81.75;38.05;;;;;;;;;;4885915;29;20128;-90
2024/01/22 02:20:00;;;;;;;86.38;37.47;;;;;;;;;;4886526;29;20057;-90
2024/01/22 02:22:26;;;;;;;76.00;35.58;;;;;;;;;;4886895;29;20056;-90
2024/01/22 02:24:52;;;;;;;77.03;36.08;;;;;;;;;;4885969;29;20039;-90
2024/01/22 02:27:21;;;;;;;76.55;36.47;;;;;;;;;;4885737;29;20024;-90
2024/01/22 02:29:47;;;;;;;94.35;38.05;;;;;;;;;;4886401;29;20214;-91
2024/01/22 02:32:13;;;;;;;77.47;36.13;;;;;;;;;;4902470;29;20032;-90
2024/01/22 02:34:39;;;;;;;78.40;36.45;;;;;;;;;;4885598;29;20155;-91
2024/01/22 02:37:08;;;;;;;91.53;38.08;;;;;;;;;;4886655;29;20036;-96
2024/01/22 02:39:36;;;;;;;83.90;37.15;;;;;;;;;;4889210;29;20091;-90
2024/01/22 02:42:02;;;;;;;89.75;38.58;;;;;;;;;;4885901;29;20028;-90
2024/01/22 02:44:28;;;;;;;75.45;33.78;;;;;;;;;;4885473;29;20029;-90
2024/01/22 02:46:54;;;;;;;86.28;36.55;;;;;;;;;;4887880;29;20385;-90
2024/01/22 02:49:29;;;;;;;91.53;37.80;;;;;;;;;;4880863;29;20044;-95
2024/01/22 02:51:56;;;;;;;91.03;41.20;;;;;;;;;;4853495;29;20418;-90
2024/01/22 02:54:22;;;;;;;85.32;37.88;;;;;;;;;;4862785;29;20036;-91
2024/01/22 02:56:51;;;;;;;81.10;38.70;;;;;;;;;;4887130;29;20065;-96
2024/01/22 02:59:18;;;;;;;86.35;39.03;;;;;;;;;;4886949;29;20096;-90
2024/01/22 03:02:05;;;;;;;84.93;38.20;;;;;;;;;;4868224;29;20478;-90
2024/01/22 03:04:31;;;;;;;78.50;35.95;;;;;;;;;;4874494;29;20085;-90
2024/01/22 03:07:03;;;;;;;82.15;37.03;;;;;;;;;;4885828;29;20036;-90
2024/01/22 03:09:29;;;;;;;85.90;38.83;;;;;;;;;;4887494;29;20024;-91
2024/01/22 03:12:11;;;;;;;89.82;37.47;;;;;;;;;;4888177;29;20072;-96
2024/01/22 03:14:40;;;;;;;82.82;39.67;;;;;;;;;;4888533;29;20028;-95
2024/01/22 03:17:15;;;;;;;90.50;38.75;;;;;;;;;;4895765;29;20036;-96
2024/01/22 03:19:48;;;;;;;87.30;37.05;;;;;;;;;;4889905;29;20085;-90
2024/01/22 03:22:14;;;;;;;83.90;38.25;;;;;;;;;;4887204;29;20092;-89
2024/01/22 03:24:45;;;;;;;88.43;40.20;;;;;;;;;;4895933;23;20071;-90
2024/01/22 03:27:11;;;;;;;77.70;37.50;;;;;;;;;;4866548;29;20041;-90
2024/01/22 03:29:41;;;;;;;85.55;37.15;;;;;;;;;;4828595;23;1885169;-92
2024/01/22 03:32:08;;;;;;;78.85;37.72;;;;;;;;;;4892102;29;20204;-93
2024/01/22 03:37:38;;;;;;;82.53;37.40;;;;;;;;;;4907733;29;20047;-94
2024/01/22 03:40:07;;;;;;;81.78;39.10;;;;;;;;;;4863994;29;20049;-90
2024/01/22 03:42:34;;;;;;;82.55;37.22;;;;;;;;;;4882596;29;20076;-95
2024/01/22 03:45:00;;;;;;;88.82;36.42;;;;;;;;;;4889539;29;20053;-89
2024/01/22 03:47:27;;;;;;;89.78;36.95;;;;;;;;;;4880641;29;20119;-91
2024/01/22 03:49:53;;;;;;;72.22;33.85;;;;;;;;;;4884611;29;20032;-89
2024/01/22 03:55:26;;;;;;;90.00;42.30;;;;;;;;;;4914976;23;20093;-96
2024/01/22 03:58:19;;;;;;;90.88;40.17;;;;;;;;;;4880620;29;20036;-96
2024/01/22 04:01:27;;;;;;;91.75;50.45;;;;;;;;;;4902247;29;20036;-96
2024/01/22 04:04:08;;;;;;;91.13;48.22;;;;;;;;;;4894819;29;20522;-96
2024/01/22 04:06:34;;;;;;;83.90;41.85;;;;;;;;;;4886970;29;20119;-90
2024/01/22 04:09:19;;;;;;;97.85;41.20;;;;;;;;;;4886184;29;20031;-89
2024/01/22 04:11:45;;;;;;;90.35;39.30;;;;;;;;;;4889813;29;20060;-90
2024/01/22 04:14:12;;;;;;;79.32;37.70;;;;;;;;;;4889213;29;20111;-90
2024/01/22 04:16:38;;;;;;;81.05;37.78;;;;;;;;;;4867283;29;20029;-89
2024/01/22 04:19:04;;;;;;;84.78;40.95;;;;;;;;;;4868357;29;20060;-90
2024/01/22 04:21:31;;;;;;;87.22;39.25;;;;;;;;;;4876223;29;20471;-90
2024/01/22 04:23:57;;;;;;;88.00;36.00;;;;;;;;;;4868040;29;20037;-89
2024/01/22 04:26:23;;;;;;;91.47;38.88;;;;;;;;;;4870718;29;20032;-90
2024/01/22 04:29:05;;;;;;;84.85;38.30;;;;;;;;;;4874269;29;20041;-91
2024/01/22 04:31:34;;;;;;;90.15;39.13;;;;;;;;;;4867532;29;20074;-95
2024/01/22 04:34:00;;;;;;;86.30;39.58;;;;;;;;;;4867709;29;20068;-89
2024/01/22 04:36:26;;;;;;;86.45;39.25;;;;;;;;;;4884790;29;20036;-90
2024/01/22 04:38:52;;;;;;;88.78;41.88;;;;;;;;;;4885210;29;20160;-90
2024/01/22 04:41:53;;;;;;;91.50;40.50;;;;;;;;;;4891994;29;20115;-95
2024/01/22 04:44:29;;;;;;;82.22;36.45;;;;;;;;;;4821445;29;20042;-96
2024/01/22 04:46:54;;;;;;;;;;;;;;;;;;4806702;29;20040;-90
2024/01/22 04:49:21;;;;;;;87.32;51.10;;;;;;;;;;4876041;29;19911;-91
2024/01/22 04:51:47;;;;;;;100.60;48.13;;;;;;;;;;4871222;29;20029;-90
2024/01/22 04:54:16;;;;;;;94.65;40.70;;;;;;;;;;4875524;29;20052;-95
2024/01/22 04:56:43;;;;;;;89.47;40.03;;;;;;;;;;4867535;29;20037;-91
2024/01/22 05:02:06;;;;;;;92.93;40.40;;;;;;;;;;4879729;29;20036;-91
2024/01/22 05:04:32;;;;;;;96.78;42.60;;;;;;;;;;4864888;29;20097;-90
2024/01/22 05:06:58;;;;;;;89.13;44.20;;;;;;;;;;4864140;29;20029;-91
2024/01/22 05:09:24;;;;;;;91.50;42.70;;;;;;;;;;4865571;29;20253;-91
2024/01/22 05:11:56;;;;;;;90.93;42.58;;;;;;;;;;4880683;29;20040;-90
2024/01/22 05:14:23;;;;;;;90.18;40.38;;;;;;;;;;4894807;29;20041;-91
2024/01/22 05:16:49;;;;;;;83.88;38.63;;;;;;;;;;4905540;29;20009;-89
2024/01/22 05:19:15;;;;;;;92.30;41.92;;;;;;;;;;4889971;29;20036;-90
2024/01/22 05:21:41;;;;;;;89.53;43.67;;;;;;;;;;4885636;29;20033;-90
2024/01/22 05:24:08;;;;;;;89.28;44.28;;;;;;;;;;4899317;29;20032;-90
2024/01/22 05:26:37;;;;;;;92.97;46.42;;;;;;;;;;4885020;29;20025;-91
2024/01/22 05:29:03;;;;;;;94.80;47.88;;;;;;;;;;4912263;23;20031;-90
2024/01/22 05:31:29;;;;;;;92.72;44.72;;;;;;;;;;4872551;29;20031;-89
2024/01/22 05:34:32;;;;;;;96.53;44.78;;;;;;;;;;4887150;29;20028;-95
2024/01/22 05:39:43;;;;;;;80.13;40.78;;;;;;;;;;4910941;29;20059;-89
2024/01/22 05:42:48;;;;;;;82.65;41.25;;;;;;;;;;4894824;29;20028;-94
2024/01/22 05:45:32;;;;;;;94.47;47.40;;;;;;;;;;5007690;23;20057;-96
2024/01/22 05:47:59;;;;;;;87.05;44.58;;;;;;;;;;4869484;29;20058;-89
2024/01/22 05:50:25;;;;;;;90.85;41.70;;;;;;;;;;4869194;29;20041;-89
2024/01/22 05:52:51;;;;;;;88.40;40.13;;;;;;;;;;4866972;29;20413;-89
2024/01/22 05:55:28;;;;;;;94.68;42.90;;;;;;;;;;4885295;29;20037;-91
2024/01/22 05:57:54;;;;;;;74.28;35.05;;;;;;;;;;5234744;23;20046;-88
2024/01/22 06:00:20;;;;;;;84.22;37.25;;;;;;;;;;4890050;23;20060;-89
2024/01/22 06:02:47;;;;;;;90.82;38.70;;;;;;;;;;4866224;29;20029;-89
2024/01/22 06:05:13;;;;;;;89.18;38.75;;;;;;;;;;4867212;29;20471;-89
2024/01/22 06:07:58;;;;;;;82.22;38.70;;;;;;;;;;4870743;29;20025;-95
2024/01/22 06:10:36;;;;;;;86.97;39.08;;;;;;;;;;4870800;29;20123;-89
2024/01/22 06:13:06;;;;;;;103.43;40.50;;;;;;;;;;4884071;29;20033;-94
2024/01/22 06:15:32;;;;;;;85.70;37.35;;;;;;;;;;5100544;23;20422;-88
2024/01/22 06:18:16;;;;;;;81.05;36.70;;;;;;;;;;4877525;29;20033;-96
2024/01/22 06:21:15;;;;;;;88.53;38.67;;;;;;;;;;4873110;29;20041;-92
2024/01/22 06:24:03;;;;;;;91.00;37.95;;;;;;;;;;4871101;29;20029;-93
2024/01/22 06:26:29;;;;;;;99.35;40.92;;;;;;;;;;4870971;29;20029;-90
2024/01/22 06:31:25;;;;;;;78.20;34.50;;;;;;;;;;4881743;29;20053;-92
2024/01/22 06:33:51;;;;;;;96.03;37.97;;;;;;;;;;4868889;29;20029;-91
2024/01/22 06:36:20;;;;;;;91.78;38.70;;;;;;;;;;4867972;29;20526;-96
2024/01/22 06:38:46;;;;;;;85.20;35.38;;;;;;;;;;4856252;29;20037;-89
2024/01/22 06:43:50;;;;;;;89.47;37.30;;;;;;;;;;5061893;23;20052;-88
2024/01/22 06:46:16;;;;;;;87.63;38.25;;;;;;;;;;4953694;23;20045;-88
2024/01/22 06:48:48;;;;;;;98.78;39.80;;;;;;;;;;4983940;23;20047;-90
2024/01/22 06:53:50;;;;;;;81.10;38.20;;;;;;;;;;5215075;23;20041;-90
2024/01/22 07:04:28;;;;;;;104.05;50.35;;;;;;;;;;4964576;23;20537;-88
2024/01/22 07:12:06;;;;;;;93.28;45.97;;;;;;;;;;5209208;23;20274;-89
2024/01/22 07:17:08;;;;;;;97.25;41.75;;;;;;;;;;5006141;23;20057;-90
2024/01/22 07:22:11;;;;;;;119.90;42.10;;;;;;;;;;4970490;23;20064;-90
2024/01/22 07:27:39;;;;;;;130.82;46.40;;;;;;;;;;5448670;23;20322;-89
2024/01/22 07:30:08;;;;;;;84.78;41.75;;;;;;;;;;4893846;23;20049;-89
2024/01/22 07:32:36;;;;;;;73.15;37.42;;;;;;;;;;4889713;29;20025;-90
2024/01/22 07:37:58;;;;;;;89.65;80.25;;;;;;;;;;5403016;23;20060;-91
2024/01/22 07:40:30;;;;;;;89.43;80.20;;;;;;;;;;4898706;29;20064;-92
2024/01/22 07:42:56;;;;;;;81.40;67.80;;;;;;;;;;4869541;29;20041;-90
2024/01/22 07:50:42;;;;;;;63.72;40.92;;;;;;;;;;4917517;23;20105;-92
2024/01/22 07:56:06;;;;;;;67.82;42.20;;;;;;;;;;4888009;24;20057;-92
2024/01/22 08:01:14;;;;;;;57.35;37.65;;;;;;;;;;5102724;23;20081;-94
2024/01/22 08:09:16;;;;;;;65.32;44.38;;;;;;;;;;5245185;23;20053;-95
2024/01/22 08:14:46;;;;;;;45.05;34.08;;;;;;;;;;5432920;23;20093;-96
2024/01/22 08:17:12;;;;;;;;;;;;;;;;;;4886712;29;20040;-89
2024/01/22 08:22:54;;;;;;;41.75;33.17;;;;;;;;;;4872814;29;20056;-92
2024/01/22 08:25:27;;;;;;;41.70;31.83;;;;;;;;;;4858241;29;20077;-89
2024/01/22 08:27:54;;;;;;;37.38;28.73;;;;;;;;;;4859742;29;20034;-92
2024/01/22 08:30:20;;;;;;;37.75;29.48;;;;;;;;;;4877073;29;20079;-91
2024/01/22 08:32:55;;;;;;;38.22;28.05;;;;;;;;;;4874123;29;20025;-92
2024/01/22 08:37:57;;;;;;;37.33;30.17;;;;;;;;;;5472600;23;20411;-89
2024/01/22 08:40:24;;;;;;;35.67;28.42;;;;;;;;;;4919866;23;20113;-89
2024/01/22 08:42:51;;;;;;;37.05;28.33;;;;;;;;;;4866278;29;20026;-89
2024/01/22 08:45:17;;;;;;;35.78;27.65;;;;;;;;;;4898725;23;20463;-89
2024/01/22 08:47:46;;;;;;;35.42;28.23;;;;;;;;;;4866312;29;20116;-90
2024/01/22 08:50:22;;;;;;;37.28;26.77;;;;;;;;;;4891639;23;20053;-90
2024/01/22 08:52:49;;;;;;;41.95;37.50;;;;;;;;;;4868389;29;20045;-91
2024/01/22 08:55:23;;;;;;;44.08;39.50;;;;;;;;;;4964002;23;20041;-89
2024/01/22 08:57:49;;;;;;;44.05;36.28;;;;;;;;;;4878104;29;20085;-91
2024/01/22 09:00:15;;;;;;;42.38;36.95;;;;;;;;;;4871990;29;20034;-88
2024/01/22 09:05:18;;;;;;;40.47;34.40;;;;;;;;;;5004529;23;20094;-89
2024/01/22 09:07:46;;;;;;;40.55;33.67;;;;;;;;;;5136461;23;20105;-89
2024/01/22 09:10:12;;;;;;;40.45;33.95;;;;;;;;;;4926462;23;20105;-90
2024/01/22 09:18:19;;;;;;;43.55;33.95;;;;;;;;;;5518349;23;20049;-89
2024/01/22 09:20:45;;;;;;;43.13;38.45;;;;;;;;;;4878844;29;20363;-91
2024/01/22 09:23:17;;;;;;;41.30;34.28;;;;;;;;;;5275165;23;20089;-91
2024/01/22 09:26:18;;;;;;;37.58;33.38;;;;;;;;;;4883477;29;20028;-94
2024/01/22 09:31:23;;;;;;;44.00;36.40;;;;;;;;;;5114932;23;20057;-90
2024/01/22 09:33:51;;;;;;;44.85;39.50;;;;;;;;;;4872652;29;20013;-90
2024/01/22 09:36:26;;;;;;;47.35;40.17;;;;;;;;;;4886531;29;20036;-91
2024/01/22 09:38:52;;;;;;;42.30;33.25;;;;;;;;;;4885177;29;20139;-91
2024/01/22 09:41:18;;;;;;;44.13;39.42;;;;;;;;;;4881232;29;20016;-90
2024/01/22 09:43:45;;;;;;;43.67;38.60;;;;;;;;;;4885443;29;20032;-90
2024/01/22 09:46:21;;;;;;;48.65;37.58;;;;;;;;;;4889484;29;20029;-95
2024/01/22 09:51:44;;;;;;;41.90;35.10;;;;;;;;;;5014962;23;20057;-89
2024/01/22 09:56:37;;;;;;;40.75;35.40;;;;;;;;;;5100117;23;20128;-89
2024/01/22 10:02:09;;;;;;;41.65;35.17;;;;;;;;;;5005806;23;20557;-90
2024/01/22 10:05:01;;;;;;;39.42;33.38;;;;;;;;;;4897767;23;20508;-95
2024/01/22 10:07:27;;;;;;;38.40;28.65;;;;;;;;;;4870991;29;20029;-89
2024/01/22 10:09:54;;;;;;;40.40;31.25;;;;;;;;;;4914851;23;20040;-89
2024/01/22 10:14:55;;;;;;;40.78;34.80;;;;;;;;;;5109403;23;20080;-88
2024/01/22 10:17:25;;;;;;;48.75;41.53;;;;;;;;;;4887305;29;20173;-88
2024/01/22 10:22:34;;;;;;;40.07;34.47;;;;;;;;;;4927910;23;20033;-90
2024/01/22 10:25:38;;;;;;;38.83;33.90;;;;;;;;;;4877981;29;20289;-96
2024/01/22 10:30:41;;;;;;;42.90;35.38;;;;;;;;;;4939909;23;20594;-90
2024/01/22 10:33:14;;;;;;;45.17;40.28;;;;;;;;;;4874561;29;20032;-92
2024/01/22 10:39:04;;;;;;;41.10;35.90;;;;;;;;;;5129601;23;20057;-91
2024/01/22 10:41:30;;;;;;;43.13;36.53;;;;;;;;;;4883684;29;20041;-88
2024/01/22 10:44:09;;;;;;;42.78;35.30;;;;;;;;;;5038862;23;20056;-92
2024/01/22 10:46:36;;;;;;;59.42;41.28;;;;;;;;;;5029187;23;20079;-89
2024/01/22 10:51:28;;;;;;;43.25;34.60;;;;;;;;;;5012092;23;20124;-91
2024/01/22 10:53:54;;;;;;;39.95;35.20;;;;;;;;;;5087400;23;20036;-87
2024/01/22 10:58:57;;;;;;;45.08;38.08;;;;;;;;;;4980696;23;20106;-90
2024/01/22 11:01:23;;;;;;;41.80;33.35;;;;;;;;;;4876352;29;20024;-91
2024/01/22 11:06:44;;;;;;;40.28;32.40;;;;;;;;;;4962498;23;20049;-90
2024/01/22 11:09:11;;;;;;;43.80;36.95;;;;;;;;;;4854379;29;20120;-89
2024/01/22 11:14:26;;;;;;;40.83;34.25;;;;;;;;;;5137956;23;20041;-92
2024/01/22 11:16:52;;;;;;;42.95;36.67;;;;;;;;;;4973183;23;20053;-89
2024/01/22 11:32:27;;;;;;;41.33;36.53;;;;;;;;;;5155411;23;20053;-87
2024/01/22 11:40:55;;;;;;;44.67;33.35;;;;;;;;;;5084369;23;20164;-90
2024/01/22 11:43:23;;;;;;;53.33;36.80;;;;;;;;;;5374147;23;20028;-90
2024/01/22 11:48:25;;;;;;;54.10;39.65;;;;;;;;;;5717280;23;20064;-89
2024/01/22 11:50:58;;;;;;;44.40;32.38;;;;;;;;;;4880374;29;20435;-93
2024/01/22 11:56:09;;;;;;;45.63;32.85;;;;;;;;;;5037645;23;20144;-89
2024/01/22 12:09:17;;;;;;;34.65;25.85;;;;;;;;;;5716719;23;20088;-89
2024/01/22 12:11:50;;;;;;;38.25;31.02;;;;;;;;;;4890545;29;20075;-89
2024/01/22 12:17:05;;;;;;;40.70;32.92;;;;;;;;;;4965247;23;20132;-95
2024/01/22 12:19:40;;;;;;;42.63;33.78;;;;;;;;;;4873454;29;20037;-88
2024/01/22 12:22:07;;;;;;;38.78;30.73;;;;;;;;;;4872860;29;20025;-88
2024/01/22 12:24:36;;;;;;;41.25;31.95;;;;;;;;;;4889963;23;20148;-88
2024/01/22 12:27:38;;;;;;;41.00;32.72;;;;;;;;;;4874199;29;20017;-87
2024/01/22 12:33:34;;;;;;;43.47;36.87;;;;;;;;;;4887652;29;20064;-90
2024/01/22 12:38:38;;;;;;;43.80;39.08;;;;;;;;;;5507191;23;20053;-89
2024/01/22 12:41:08;;;;;;;43.67;38.10;;;;;;;;;;4869158;29;20060;-90
2024/01/22 12:43:46;;;;;;;44.55;33.70;;;;;;;;;;4868219;29;20040;-90
2024/01/22 12:46:15;;;;;;;41.17;34.92;;;;;;;;;;4871992;29;20037;-90
2024/01/22 12:49:09;;;;;;;43.90;35.80;;;;;;;;;;4873122;29;20049;-94
2024/01/22 12:51:38;;;;;;;45.47;37.50;;;;;;;;;;5141435;23;20049;-89
2024/01/22 12:57:15;;;;;;;42.65;36.70;;;;;;;;;;5206719;23;21077;-95
2024/01/22 12:59:45;;;;;;;40.42;35.97;;;;;;;;;;4987815;23;20080;-90
2024/01/22 13:02:21;;;;;;;41.50;34.97;;;;;;;;;;5032092;23;20041;-90
2024/01/22 13:12:57;;;;;;;44.08;35.67;;;;;;;;;;5266307;23;20087;-88
2024/01/22 13:18:46;;;;;;;42.45;38.00;;;;;;;;;;4896172;29;20039;-91
2024/01/22 13:21:13;;;;;;;44.05;36.40;;;;;;;;;;4893658;29;20054;-89
2024/01/22 13:28:58;;;;;;;42.13;36.53;;;;;;;;;;5118326;23;20060;-89
2024/01/22 13:31:32;;;;;;;45.72;40.88;;;;;;;;;;4869851;29;20044;-90
2024/01/22 13:37:11;;;;;;;41.45;37.03;;;;;;;;;;4907509;29;20084;-92
2024/01/22 13:39:37;;;;;;;41.97;37.42;;;;;;;;;;4894888;29;20040;-89
2024/01/22 13:42:03;;;;;;;38.33;34.25;;;;;;;;;;4901347;29;20025;-90
2024/01/22 13:44:50;;;;;;;47.70;42.97;;;;;;;;;;4886010;29;20466;-92
2024/01/22 13:47:23;;;;;;;46.08;41.47;;;;;;;;;;4888102;29;20025;-93
2024/01/22 13:49:49;;;;;;;38.05;33.50;;;;;;;;;;4918403;23;20080;-90
2024/01/22 13:52:16;;;;;;;40.03;35.92;;;;;;;;;;4904704;29;20050;-90
2024/01/22 13:54:51;;;;;;;39.28;34.38;;;;;;;;;;4893497;29;20033;-90
2024/01/22 13:59:53;;;;;;;40.33;36.17;;;;;;;;;;4866148;23;20145;-90
2024/01/22 14:02:23;;;;;;;37.03;33.10;;;;;;;;;;4847929;29;20029;-89
2024/01/22 14:04:49;;;;;;;40.58;36.17;;;;;;;;;;4863880;29;20046;-90
2024/01/22 14:07:15;;;;;;;39.13;34.92;;;;;;;;;;4846998;29;20082;-89
2024/01/22 14:09:41;;;;;;;39.28;32.13;;;;;;;;;;4845905;29;20033;-89
2024/01/22 14:12:07;;;;;;;40.33;35.53;;;;;;;;;;4862809;29;20108;-89
2024/01/22 14:14:33;;;;;;;40.15;35.55;;;;;;;;;;4847385;29;20040;-89
2024/01/22 14:17:04;;;;;;;38.28;30.45;;;;;;;;;;4846298;29;20391;-91
2024/01/22 14:19:32;;;;;;;46.13;37.60;;;;;;;;;;4845157;29;20185;-93
2024/01/22 14:21:58;;;;;;;43.38;37.42;;;;;;;;;;4846057;29;20402;-88
2024/01/22 14:24:24;;;;;;;41.97;36.80;;;;;;;;;;4852124;29;20044;-90
2024/01/22 14:26:50;;;;;;;47.35;38.90;;;;;;;;;;4864575;29;20089;-92
2024/01/22 14:29:16;;;;;;;49.50;36.67;;;;;;;;;;4852171;29;20373;-91
2024/01/22 14:31:42;;;;;;;46.53;37.95;;;;;;;;;;4882322;24;20060;-89
2024/01/22 14:34:08;;;;;;;50.30;40.38;;;;;;;;;;4886730;29;20036;-89
2024/01/22 14:36:42;;;;;;;48.65;35.17;;;;;;;;;;4884153;29;20063;-90
2024/01/22 14:39:10;;;;;;;55.22;39.67;;;;;;;;;;4882700;29;20100;-89
2024/01/22 14:41:38;;;;;;;49.88;42.70;;;;;;;;;;4882310;29;20044;-89
2024/01/22 14:44:04;;;;;;;52.35;37.42;;;;;;;;;;4885001;29;20033;-90
2024/01/22 14:46:30;;;;;;;43.92;36.03;;;;;;;;;;4883192;29;20025;-90
2024/01/22 14:48:59;;;;;;;39.60;28.15;;;;;;;;;;4883723;29;20064;-96
2024/01/22 14:51:40;;;;;;;46.85;32.50;;;;;;;;;;4889304;29;20024;-89
2024/01/22 15:03:10;;;;;;;44.28;31.77;;;;;;;;;;5160491;23;20077;-96
2024/01/22 15:05:20;;;;;;;47.63;38.95;;;;;;;;;;4874332;29;20029;-96
2024/01/22 15:08:14;;;;;;;;;;;;;;;;;;;;;
2024/01/22 15:10:45;;;;;;;49.88;35.13;;;;;;;;;;4850230;29;20137;-96
2024/01/22 15:13:56;;;;;;;;;;;;;;;;;;;;;
2024/01/22 15:16:32;;;;;;;49.75;38.83;;;;;;;;;;4874077;29;20265;-96
2024/01/22 15:31:15;;;;;;;50.92;41.60;;;;;;;;;;4807716;29;20058;-95
2024/01/22 15:33:41;;;;;;;52.22;33.83;;;;;;;;;;5461689;23;20045;-89
2024/01/22 15:36:09;;;;;;;49.28;29.60;;;;;;;;;;4887127;29;20037;-90
2024/01/22 15:38:46;;;;;;;50.53;31.15;;;;;;;;;;4892525;29;20033;-89
2024/01/22 15:41:22;;;;;;;51.45;35.08;;;;;;;;;;4897302;29;20122;-90
2024/01/22 15:44:14;;;;;;;;;;;;;;;;;;;;;
2024/01/22 15:58:04;;;;;;;62.33;40.78;;;;;;;;;;5109991;23;20079;-95
2024/01/22 16:00:40;;;;;;;60.47;41.33;;;;;;;;;;4914187;23;20451;-94
2024/01/22 16:03:15;;;;;;;65.78;53.47;;;;;;;;;;4868963;29;20044;-93
2024/01/22 16:08:14;;;;;;;72.78;59.03;;;;;;;;;;4881968;29;20045;-92
2024/01/22 16:10:43;;;;;;;61.38;44.38;;;;;;;;;;4867237;29;20059;-94
2024/01/22 16:13:12;;;;;;;56.60;38.58;;;;;;;;;;4879555;29;20375;-95
2024/01/22 16:18:42;;;;;;;69.38;52.38;;;;;;;;;;4901251;29;20090;-91
2024/01/22 16:21:34;;;;;;;61.45;37.10;;;;;;;;;;4883963;29;20033;-92
2024/01/22 16:30:04;;;;;;;;;;;;;;;;;;4808804;29;20382;-95
2024/01/22 16:32:39;;;;;;;75.15;67.20;;;;;;;;;;4794817;29;20064;-93
2024/01/22 16:43:07;;;;;;;70.47;33.75;;;;;;;;;;4979584;23;20065;-92
2024/01/22 16:53:27;;;;;;;69.15;34.83;;;;;;;;;;4886791;23;20057;-95
2024/01/22 16:56:04;;;;;;;82.85;36.97;;;;;;;;;;4871053;29;20076;-92
2024/01/22 17:01:29;;;;;;;82.30;41.08;;;;;;;;;;5155061;23;20162;-94
2024/01/22 17:12:18;;;;;;;76.38;36.97;;;;;;;;;;5110965;23;20076;-92
2024/01/22 17:14:47;;;;;;;78.70;38.72;;;;;;;;;;4887105;29;20082;-95
2024/01/22 17:17:22;;;;;;;73.03;37.65;;;;;;;;;;4898605;29;20067;-92
2024/01/22 17:19:51;;;;;;;65.00;35.10;;;;;;;;;;5314691;23;20049;-94
2024/01/22 17:22:17;;;;;;;71.18;37.03;;;;;;;;;;4881405;29;20017;-92
2024/01/22 17:24:46;;;;;;;60.75;32.72;;;;;;;;;;4873233;29;20037;-95
2024/01/22 17:38:25;;;;;;;74.47;33.05;;;;;;;;;;5140002;23;20064;-95
2024/01/22 17:40:58;;;;;;;65.80;33.03;;;;;;;;;;4876912;29;20073;-96
2024/01/22 17:43:24;;;;;;;65.65;33.53;;;;;;;;;;4877575;29;20518;-92
2024/01/22 17:45:53;;;;;;;66.35;33.63;;;;;;;;;;4874514;29;20509;-92
2024/01/22 17:51:14;;;;;;;78.07;38.53;;;;;;;;;;4888072;29;20059;-94
2024/01/22 17:56:10;;;;;;;66.80;35.45;;;;;;;;;;4923606;23;20506;-93
2024/01/22 17:58:36;;;;;;;70.50;37.08;;;;;;;;;;4904473;29;20041;-93
2024/01/22 18:01:04;;;;;;;74.18;37.97;;;;;;;;;;4873267;29;20077;-92
2024/01/22 18:03:39;;;;;;;73.13;37.17;;;;;;;;;;4885042;29;20053;-96
2024/01/22 18:06:05;;;;;;;70.47;36.20;;;;;;;;;;4887041;29;20478;-94
2024/01/22 18:08:37;;;;;;;73.63;36.80;;;;;;;;;;4872462;29;20033;-94
2024/01/22 18:11:09;;;;;;;77.00;37.95;;;;;;;;;;4880222;29;20029;-95
2024/01/22 18:16:47;;;;;;;68.15;35.78;;;;;;;;;;4870059;29;20032;-95
2024/01/22 18:19:26;;;;;;;68.35;35.90;;;;;;;;;;4847643;29;20119;-94
2024/01/22 18:22:08;;;;;;;68.93;36.83;;;;;;;;;;4867526;29;20044;-96
2024/01/22 18:24:34;;;;;;;64.82;34.58;;;;;;;;;;4857594;29;20037;-89
2024/01/22 18:27:06;;;;;;;67.50;35.75;;;;;;;;;;4880654;29;20098;-94
2024/01/22 18:29:35;;;;;;;70.18;36.00;;;;;;;;;;4872048;29;20033;-87
2024/01/22 18:32:17;;;;;;;73.20;36.92;;;;;;;;;;4874219;29;20029;-91
2024/01/22 18:34:47;;;;;;;66.22;36.67;;;;;;;;;;4887015;29;20100;-88
2024/01/22 18:37:15;;;;;;;66.60;36.92;;;;;;;;;;4891454;29;20029;-91
2024/01/22 18:39:45;;;;;;;74.18;37.58;;;;;;;;;;4899136;29;20029;-96
2024/01/22 18:42:16;;;;;;;73.38;38.35;;;;;;;;;;4905633;29;20024;-96
2024/01/22 18:44:43;;;;;;;75.70;38.90;;;;;;;;;;5144694;23;20220;-88
2024/01/22 18:49:48;;;;;;;72.28;37.85;;;;;;;;;;4921807;23;20060;-91
2024/01/22 18:52:25;;;;;;;82.20;40.45;;;;;;;;;;4872239;29;20382;-92
2024/01/22 18:54:57;;;;;;;82.03;40.25;;;;;;;;;;4890591;29;20120;-89
2024/01/22 18:57:41;;;;;;;81.25;40.22;;;;;;;;;;4889331;29;20517;-92
2024/01/22 19:00:14;;;;;;;85.95;40.08;;;;;;;;;;4937567;23;20117;-90
2024/01/22 19:05:44;;;;;;;;;;;;;;;;;;4962484;23;20136;-90
2024/01/22 19:10:56;;;;;;;84.65;39.63;;;;;;;;;;4910677;29;20443;-91
2024/01/22 19:13:22;;;;;;;85.55;41.17;;;;;;;;;;4893411;29;20036;-91
2024/01/22 19:16:00;;;;;;;77.75;40.42;;;;;;;;;;4895976;29;20521;-92
2024/01/22 19:18:26;;;;;;;76.07;39.00;;;;;;;;;;4890251;29;20075;-89
2024/01/22 19:21:19;;;;;;;74.10;38.50;;;;;;;;;;4891082;29;20047;-90
2024/01/22 19:23:46;;;;;;;73.35;37.17;;;;;;;;;;4877270;29;20037;-89